createdAt,value
2019-01-26T00:00:08.077Z,-0.66
2019-01-26T00:02:36.393Z,-0.65
2019-01-26T00:05:08.831Z,-0.65
2019-01-26T00:07:37.560Z,-0.64
2019-01-26T00:10:08.163Z,-0.64
2019-01-26T00:12:36.561Z,-0.68
2019-01-26T00:15:07.739Z,-0.69
2019-01-26T00:17:36.025Z,-0.72
2019-01-26T00:20:06.592Z,-0.71
2019-01-26T00:22:34.883Z,-0.72
2019-01-26T00:25:03.364Z,-0.71
2019-01-26T00:27:31.651Z,-0.71
2019-01-26T00:30:00.257Z,-0.71
2019-01-26T00:32:29.002Z,-0.71
2019-01-26T00:34:57.497Z,-0.71
2019-01-26T00:37:25.781Z,-0.72
2019-01-26T00:39:54.066Z,-0.72
2019-01-26T00:42:22.402Z,-0.70
2019-01-26T00:44:52.328Z,-0.69
2019-01-26T00:47:20.587Z,-0.70
2019-01-26T00:49:48.848Z,-0.71
2019-01-26T00:52:17.129Z,-0.71
2019-01-26T00:54:45.389Z,-0.72
2019-01-26T00:57:13.648Z,-0.71
2019-01-26T00:59:41.942Z,-0.71
2019-01-26T01:02:10.211Z,-0.73
2019-01-26T01:04:38.539Z,-0.74
2019-01-26T01:07:06.824Z,-0.71
2019-01-26T01:09:35.180Z,-0.67
2019-01-26T01:12:03.458Z,-0.68
2019-01-26T01:14:31.730Z,-0.67
2019-01-26T01:16:59.989Z,-0.65
2019-01-26T01:19:28.270Z,-0.62
2019-01-26T01:21:56.620Z,-0.60
2019-01-26T01:24:24.896Z,-0.57
2019-01-26T01:26:53.179Z,-0.55
2019-01-26T01:29:21.471Z,-0.54
2019-01-26T01:31:49.752Z,-0.54
2019-01-26T01:34:18.027Z,-0.51
2019-01-26T01:36:46.273Z,-0.52
2019-01-26T01:39:14.545Z,-0.51
2019-01-26T01:41:42.807Z,-0.50
2019-01-26T01:44:11.080Z,-0.49
2019-01-26T01:46:42.955Z,-0.47
2019-01-26T01:49:09.359Z,-0.48
2019-01-26T01:51:37.628Z,-0.49
2019-01-26T01:54:05.908Z,-0.50
2019-01-26T01:56:34.174Z,-0.49
2019-01-26T01:59:02.446Z,-0.47
2019-01-26T02:01:30.761Z,-0.48
2019-01-26T02:03:59.049Z,-0.47
2019-01-26T02:06:27.365Z,-0.42
2019-01-26T02:08:55.636Z,-0.41
2019-01-26T02:11:23.900Z,-0.39
2019-01-26T02:13:52.178Z,-0.38
2019-01-26T02:16:20.470Z,-0.39
2019-01-26T02:18:48.796Z,-0.36
2019-01-26T02:21:17.060Z,-0.35
2019-01-26T02:23:45.318Z,-0.32
2019-01-26T02:26:13.626Z,-0.31
2019-01-26T02:28:41.871Z,-0.30
2019-01-26T02:31:10.146Z,-0.27
2019-01-26T02:33:38.422Z,-0.25
2019-01-26T02:36:06.693Z,-0.25
2019-01-26T02:38:34.953Z,-0.25
2019-01-26T02:41:03.249Z,-0.26
2019-01-26T02:43:31.522Z,-0.24
2019-01-26T02:45:59.790Z,-0.29
2019-01-26T02:48:28.056Z,-0.29
2019-01-26T02:50:56.325Z,-0.33
2019-01-26T02:53:24.617Z,-0.40
2019-01-26T02:55:52.876Z,-0.45
2019-01-26T02:58:21.146Z,-0.50
2019-01-26T03:00:49.449Z,-0.58
2019-01-26T03:03:17.720Z,-0.66
2019-01-26T03:05:46.001Z,-0.70
2019-01-26T03:08:14.295Z,-0.71
2019-01-26T03:10:42.551Z,-0.77
2019-01-26T03:13:10.851Z,-0.84
2019-01-26T03:15:39.167Z,-0.86
2019-01-26T03:18:07.433Z,-0.88
2019-01-26T03:20:35.728Z,-0.91
2019-01-26T03:23:04.005Z,-0.94
2019-01-26T03:25:32.301Z,-0.93
2019-01-26T03:28:00.585Z,-0.93
2019-01-26T03:30:28.913Z,-0.93
2019-01-26T03:32:57.187Z,-0.91
2019-01-26T03:35:25.454Z,-0.91
2019-01-26T03:37:53.751Z,-0.96
2019-01-26T03:40:22.624Z,-0.94
2019-01-26T03:42:50.982Z,-0.93
2019-01-26T03:45:19.257Z,-0.96
2019-01-26T03:47:47.541Z,-0.95
2019-01-26T03:50:16.313Z,-0.98
2019-01-26T03:52:44.591Z,-1.01
2019-01-26T03:55:15.757Z,-1.00
2019-01-26T03:57:44.053Z,-0.97
2019-01-26T04:00:21.423Z,-0.97
2019-01-26T04:02:49.685Z,-0.99
2019-01-26T04:05:18.046Z,-1.00
2019-01-26T04:07:46.320Z,-1.02
2019-01-26T04:10:15.617Z,-0.98
2019-01-26T04:12:44.028Z,-0.96
2019-01-26T04:15:17.392Z,-0.94
2019-01-26T04:17:45.721Z,-0.92
2019-01-26T04:20:21.618Z,-0.91
2019-01-26T04:22:49.921Z,-0.91
2019-01-26T04:25:18.181Z,-0.92
2019-01-26T04:27:46.517Z,-2.15
2019-01-26T04:30:17.102Z,-0.88
2019-01-26T04:32:45.360Z,-0.89
2019-01-26T04:35:13.627Z,-0.89
2019-01-26T04:37:41.902Z,-0.86
2019-01-26T04:40:12.531Z,-0.82
2019-01-26T04:42:40.832Z,-0.81
2019-01-26T04:45:14.018Z,-0.79
2019-01-26T04:47:42.292Z,-0.76
2019-01-26T04:50:13.296Z,-0.75
2019-01-26T04:52:41.556Z,-0.72
2019-01-26T04:55:09.831Z,-0.70
2019-01-26T04:57:38.118Z,-0.68
2019-01-26T05:00:18.692Z,-0.67
2019-01-26T05:02:46.991Z,-0.63
2019-01-26T05:05:15.315Z,-0.62
2019-01-26T05:07:43.575Z,-0.63
2019-01-26T05:10:17.360Z,-0.59
2019-01-26T05:12:45.704Z,-0.57
2019-01-26T05:15:15.006Z,-0.52
2019-01-26T05:17:43.359Z,-0.51
2019-01-26T05:20:22.960Z,-0.50
2019-01-26T05:22:51.396Z,-0.45
2019-01-26T05:25:19.761Z,-0.45
2019-01-26T05:27:48.028Z,-0.41
2019-01-26T05:30:21.810Z,-0.37
2019-01-26T05:32:50.062Z,-0.34
2019-01-26T05:35:18.335Z,-0.31
2019-01-26T05:37:46.639Z,-0.27
2019-01-26T05:40:16.849Z,-0.23
2019-01-26T05:42:45.191Z,-0.20
2019-01-26T05:45:18.593Z,-0.18
2019-01-26T05:47:48.594Z,-0.16
2019-01-26T05:50:22.379Z,-0.12
2019-01-26T05:52:50.682Z,-0.10
2019-01-26T05:55:18.951Z,-0.10
2019-01-26T05:57:47.221Z,-0.11
2019-01-26T06:00:22.928Z,-0.08
2019-01-26T06:02:51.343Z,-0.05
2019-01-26T06:05:19.640Z,-0.04
2019-01-26T06:07:47.919Z,-0.05
2019-01-26T06:10:16.274Z,-0.02
2019-01-26T06:12:44.513Z,-0.01
2019-01-26T06:15:12.854Z,-0.01
2019-01-26T06:17:41.162Z,0.00
2019-01-26T06:20:12.666Z,-0.02
2019-01-26T06:22:40.973Z,0.03
2019-01-26T06:25:12.421Z,0.03
2019-01-26T06:27:40.701Z,0.05
2019-01-26T06:30:15.136Z,0.07
2019-01-26T06:32:43.412Z,0.08
2019-01-26T06:35:13.811Z,0.10
2019-01-26T06:37:41.844Z,0.12
2019-01-26T06:40:12.649Z,0.15
2019-01-26T06:42:40.918Z,0.17
2019-01-26T06:45:11.187Z,0.18
2019-01-26T06:47:39.502Z,0.18
2019-01-26T06:50:16.758Z,0.18
2019-01-26T06:52:45.055Z,-0.03
2019-01-26T06:55:13.321Z,0.25
2019-01-26T06:57:41.603Z,0.24
2019-01-26T07:00:15.531Z,0.25
2019-01-26T07:02:43.819Z,0.23
2019-01-26T07:05:16.535Z,0.25
2019-01-26T07:07:44.793Z,0.28
2019-01-26T07:10:13.079Z,0.32
2019-01-26T07:12:41.466Z,0.31
2019-01-26T07:15:11.277Z,0.33
2019-01-26T07:17:39.575Z,0.37
2019-01-26T07:20:11.288Z,0.39
2019-01-26T07:22:39.590Z,0.42
2019-01-26T07:25:08.573Z,0.42
2019-01-26T07:27:37.091Z,0.42
2019-01-26T07:30:14.730Z,0.48
2019-01-26T07:32:43.127Z,0.48
2019-01-26T07:35:11.393Z,0.53
2019-01-26T07:37:39.756Z,0.55
2019-01-26T07:40:14.083Z,0.57
2019-01-26T07:42:42.384Z,0.62
2019-01-26T07:45:13.164Z,0.63
2019-01-26T07:47:41.512Z,0.65
2019-01-26T07:50:18.318Z,0.68
2019-01-26T07:52:46.569Z,0.69
2019-01-26T07:55:16.474Z,0.73
2019-01-26T07:57:44.794Z,0.76
2019-01-26T08:00:16.362Z,0.81
2019-01-26T08:02:44.610Z,0.82
2019-01-26T08:05:15.673Z,0.83
2019-01-26T08:07:43.953Z,0.84
2019-01-26T08:10:14.767Z,0.90
2019-01-26T08:12:43.056Z,0.93
2019-01-26T08:15:14.386Z,0.97
2019-01-26T08:17:42.651Z,0.98
2019-01-26T08:20:16.482Z,1.01
2019-01-26T08:22:44.746Z,1.02
2019-01-26T08:25:16.078Z,1.06
2019-01-26T08:27:44.338Z,1.09
2019-01-26T08:30:18.613Z,1.13
2019-01-26T08:32:46.876Z,1.15
2019-01-26T08:35:18.081Z,1.17
2019-01-26T08:37:46.339Z,1.16
2019-01-26T08:40:17.310Z,1.18
2019-01-26T08:42:45.573Z,1.18
2019-01-26T08:45:14.772Z,1.25
2019-01-26T08:47:43.269Z,1.33
2019-01-26T08:50:14.459Z,1.35
2019-01-26T08:52:42.785Z,1.36
2019-01-26T08:55:18.059Z,1.40
2019-01-26T08:57:42.076Z,1.44
2019-01-26T09:00:18.096Z,1.48
2019-01-26T09:02:54.500Z,1.52
2019-01-26T09:05:30.477Z,1.52
2019-01-26T09:07:58.776Z,1.51
2019-01-26T09:10:27.037Z,1.54
2019-01-26T09:12:55.296Z,1.56
2019-01-26T09:15:24.135Z,1.60
2019-01-26T09:17:52.413Z,1.64
2019-01-26T09:20:20.677Z,1.66
2019-01-26T09:22:48.942Z,1.74
2019-01-26T09:25:17.228Z,1.75
2019-01-26T09:27:45.751Z,1.78
2019-01-26T09:30:17.278Z,1.85
2019-01-26T09:32:45.545Z,1.87
2019-01-26T09:35:13.824Z,1.94
2019-01-26T09:37:42.084Z,1.98
2019-01-26T09:40:13.779Z,2.03
2019-01-26T09:42:42.105Z,2.12
2019-01-26T09:45:14.339Z,2.13
2019-01-26T09:47:42.629Z,2.15
2019-01-26T09:50:11.324Z,2.17
2019-01-26T09:52:39.590Z,2.23
2019-01-26T09:55:10.678Z,2.30
2019-01-26T09:57:38.946Z,2.36
2019-01-26T10:00:16.145Z,2.36
2019-01-26T10:02:44.396Z,2.43
2019-01-26T10:05:12.669Z,2.53
2019-01-26T10:07:40.940Z,2.54
2019-01-26T10:10:14.072Z,2.64
2019-01-26T10:12:51.614Z,2.70
2019-01-26T10:15:34.838Z,2.73
2019-01-26T10:18:05.324Z,2.79
2019-01-26T10:21:01.677Z,2.78
2019-01-26T10:23:37.843Z,2.80
2019-01-26T10:26:10.731Z,2.87
2019-01-26T10:28:39.560Z,2.76
2019-01-26T10:31:17.849Z,2.84
2019-01-26T10:36:55.359Z,2.96
2019-01-26T10:39:26.681Z,2.95
2019-01-26T10:42:00.911Z,2.90
2019-01-26T10:44:32.186Z,2.96
2019-01-26T10:47:01.978Z,3.06
2019-01-26T10:49:33.216Z,3.00
2019-01-26T10:52:05.810Z,3.05
2019-01-26T10:54:39.684Z,3.10
2019-01-26T10:57:09.185Z,3.11
2019-01-26T10:59:39.037Z,3.20
2019-01-26T11:02:10.181Z,3.26
2019-01-26T11:04:38.516Z,3.25
2019-01-26T11:07:06.771Z,3.30
2019-01-26T11:09:35.035Z,3.31
2019-01-26T11:12:03.303Z,3.33
2019-01-26T11:14:31.556Z,3.30
2019-01-26T11:17:05.581Z,3.37
2019-01-26T11:19:33.847Z,3.39
2019-01-26T11:22:02.107Z,3.42
2019-01-26T11:24:30.509Z,3.46
2019-01-26T11:27:00.306Z,3.43
2019-01-26T11:29:28.620Z,3.45
2019-01-26T11:31:56.903Z,3.47
2019-01-26T11:34:25.192Z,3.55
2019-01-26T11:36:53.762Z,3.64
2019-01-26T11:39:22.465Z,3.65
2019-01-26T11:41:50.741Z,3.66
2019-01-26T11:44:19.004Z,3.74
2019-01-26T11:46:47.755Z,3.72
2019-01-26T11:49:16.101Z,3.73
2019-01-26T11:51:44.752Z,1.49
2019-01-26T11:54:13.033Z,3.81
2019-01-26T11:56:43.007Z,3.79
2019-01-26T11:59:11.270Z,3.80
2019-01-26T12:01:41.354Z,3.79
2019-01-26T12:04:14.318Z,3.90
2019-01-26T12:06:44.226Z,3.94
2019-01-26T12:09:15.508Z,3.99
2019-01-26T12:11:44.156Z,4.03
2019-01-26T12:14:12.769Z,4.05
2019-01-26T12:16:41.013Z,4.12
2019-01-26T12:19:09.357Z,4.16
2019-01-26T12:21:37.643Z,4.24
2019-01-26T12:24:06.092Z,4.27
2019-01-26T12:26:34.347Z,4.29
2019-01-26T12:29:02.702Z,4.36
2019-01-26T12:31:31.341Z,4.39
2019-01-26T12:33:59.604Z,4.48
2019-01-26T12:36:27.884Z,4.55
2019-01-26T12:38:56.147Z,4.55
2019-01-26T12:41:24.434Z,4.54
2019-01-26T12:43:52.747Z,4.55
2019-01-26T12:46:21.055Z,4.56
2019-01-26T12:48:49.321Z,4.60
2019-01-26T12:51:17.571Z,4.67
2019-01-26T12:53:45.834Z,4.65
2019-01-26T12:56:14.109Z,1.76
2019-01-26T12:58:42.397Z,4.60
2019-01-26T13:01:10.660Z,4.71
2019-01-26T13:03:38.919Z,4.77
2019-01-26T13:06:07.250Z,4.81
2019-01-26T13:08:35.606Z,4.84
2019-01-26T13:11:07.337Z,4.84
2019-01-26T13:13:35.618Z,4.86
2019-01-26T13:16:04.287Z,4.87
2019-01-26T13:18:32.589Z,4.95
2019-01-26T13:21:00.868Z,4.98
2019-01-26T13:23:29.133Z,5.05
2019-01-26T13:25:57.409Z,5.09
2019-01-26T13:28:25.669Z,5.13
2019-01-26T13:30:53.931Z,5.14
2019-01-26T13:33:22.213Z,5.12
2019-01-26T13:35:50.459Z,5.22
2019-01-26T13:38:18.729Z,5.31
2019-01-26T13:40:47.433Z,5.36
2019-01-26T13:43:20.223Z,5.40
2019-01-26T13:45:51.693Z,5.44
2019-01-26T13:48:24.218Z,5.45
2019-01-26T13:50:52.695Z,5.48
2019-01-26T13:53:25.855Z,5.57
2019-01-26T13:55:54.849Z,5.71
2019-01-26T13:58:23.674Z,2.34
2019-01-26T14:00:53.770Z,5.90
2019-01-26T14:03:26.088Z,5.95
2019-01-26T14:05:54.387Z,6.03
2019-01-26T14:08:22.685Z,6.14
2019-01-26T14:10:51.079Z,6.19
2019-01-26T14:13:19.422Z,6.25
2019-01-26T14:15:55.396Z,6.29
2019-01-26T14:18:23.877Z,6.35
2019-01-26T14:20:58.488Z,6.38
2019-01-26T14:23:32.593Z,6.45
2019-01-26T14:26:01.033Z,6.45
2019-01-26T14:28:29.331Z,6.43
2019-01-26T14:30:58.641Z,6.43
2019-01-26T14:33:28.802Z,6.32
2019-01-26T14:35:57.568Z,6.30
2019-01-26T14:38:26.547Z,6.15
2019-01-26T14:40:55.121Z,6.12
2019-01-26T14:43:23.578Z,6.09
2019-01-26T14:45:52.053Z,5.97
2019-01-26T14:48:20.481Z,5.82
2019-01-26T14:50:48.861Z,5.79
2019-01-26T14:53:17.173Z,5.75
2019-01-26T14:55:45.985Z,5.73
2019-01-26T14:58:14.581Z,5.71
2019-01-26T15:00:42.981Z,5.66
2019-01-26T15:03:12.102Z,5.66
2019-01-26T15:05:41.178Z,5.65
2019-01-26T15:08:09.707Z,5.66
2019-01-26T15:10:40.977Z,5.66
2019-01-26T15:13:08.899Z,5.63
2019-01-26T15:15:37.269Z,5.59
2019-01-26T15:18:05.698Z,5.60
2019-01-26T15:20:39.833Z,5.62
2019-01-26T15:23:08.850Z,5.65
2019-01-26T15:25:38.940Z,5.67
2019-01-26T15:28:10.967Z,5.61
2019-01-26T15:30:40.635Z,5.51
2019-01-26T15:33:08.913Z,5.45
2019-01-26T15:35:44.599Z,5.40
2019-01-26T15:38:15.213Z,5.31
2019-01-26T15:40:43.524Z,5.27
2019-01-26T15:43:11.836Z,5.17
2019-01-26T15:45:44.175Z,5.19
2019-01-26T15:48:12.483Z,5.17
2019-01-26T15:50:42.009Z,5.15
2019-01-26T15:53:10.568Z,5.16
2019-01-26T15:55:39.209Z,5.02
2019-01-26T15:58:07.884Z,5.03
2019-01-26T16:00:41.173Z,4.95
2019-01-26T16:03:12.815Z,4.87
2019-01-26T16:05:41.156Z,4.85
2019-01-26T16:08:09.503Z,4.80
2019-01-26T16:10:38.016Z,4.79
2019-01-26T16:13:06.477Z,4.74
2019-01-26T16:15:38.835Z,4.75
2019-01-26T16:18:10.265Z,4.72
2019-01-26T16:20:38.738Z,4.69
2019-01-26T16:23:09.524Z,4.63
2019-01-26T16:25:40.400Z,4.61
2019-01-26T16:28:15.133Z,4.57
2019-01-26T16:30:42.131Z,4.56
2019-01-26T16:33:12.049Z,4.53
2019-01-26T16:35:40.366Z,4.50
2019-01-26T16:38:08.716Z,4.48
2019-01-26T16:40:37.359Z,4.49
2019-01-26T16:43:06.003Z,4.50
2019-01-26T16:45:37.677Z,4.49
2019-01-26T16:48:08.236Z,4.48
2019-01-26T16:50:36.612Z,4.47
2019-01-26T16:53:05.253Z,4.46
2019-01-26T16:55:33.829Z,4.44
2019-01-26T16:58:02.334Z,4.43
2019-01-26T17:00:38.981Z,4.39
2019-01-26T17:03:07.430Z,4.39
2019-01-26T17:05:37.584Z,4.37
2019-01-26T17:08:08.048Z,4.34
2019-01-26T17:10:36.715Z,4.31
2019-01-26T17:13:05.528Z,4.31
2019-01-26T17:15:43.194Z,4.28
2019-01-26T17:18:14.533Z,4.25
2019-01-26T17:20:44.681Z,4.21
2019-01-26T17:23:14.803Z,4.24
2019-01-26T17:25:46.517Z,4.19
2019-01-26T17:28:15.074Z,4.19
2019-01-26T17:30:43.643Z,4.18
2019-01-26T17:33:11.962Z,4.17
2019-01-26T17:35:43.385Z,4.12
2019-01-26T17:38:11.754Z,4.12
2019-01-26T17:40:41.909Z,4.12
2019-01-26T17:43:12.928Z,4.11
2019-01-26T17:45:44.252Z,4.10
2019-01-26T17:48:12.532Z,4.11
2019-01-26T17:50:42.629Z,4.08
2019-01-26T17:53:10.993Z,4.05
2019-01-26T17:55:39.414Z,4.05
2019-01-26T17:58:07.827Z,4.04
2019-01-26T18:00:46.476Z,4.03
2019-01-26T18:03:15.036Z,4.05
2019-01-26T18:05:43.395Z,4.04
2019-01-26T18:08:11.804Z,4.05
2019-01-26T18:10:42.745Z,4.05
2019-01-26T18:13:11.127Z,4.03
2019-01-26T18:15:42.432Z,4.00
2019-01-26T18:18:10.819Z,3.98
2019-01-26T18:20:39.109Z,3.97
2019-01-26T18:23:10.077Z,3.97
2019-01-26T18:25:42.002Z,3.97
2019-01-26T18:28:10.705Z,3.94
2019-01-26T18:30:41.520Z,3.91
2019-01-26T18:33:09.896Z,3.91
2019-01-26T18:35:42.729Z,3.89
2019-01-26T18:38:11.072Z,3.90
2019-01-26T18:40:39.430Z,3.92
2019-01-26T18:43:07.683Z,3.92
2019-01-26T18:45:37.574Z,3.91
2019-01-26T18:48:06.467Z,3.89
2019-01-26T18:50:40.783Z,3.90
2019-01-26T18:53:09.143Z,3.86
2019-01-26T18:55:37.554Z,3.82
2019-01-26T18:58:05.820Z,3.83
2019-01-26T19:00:40.450Z,3.82
2019-01-26T19:03:39.084Z,3.77
2019-01-26T19:06:07.498Z,3.78
2019-01-26T19:08:41.897Z,3.82
2019-01-26T19:11:13.032Z,3.80
2019-01-26T19:13:41.444Z,3.79
2019-01-26T19:16:14.010Z,3.75
2019-01-26T19:18:42.368Z,3.77
2019-01-26T19:21:10.745Z,3.71
2019-01-26T19:23:39.037Z,3.70
2019-01-26T19:26:07.335Z,3.68
2019-01-26T19:28:35.590Z,3.66
2019-01-26T19:31:03.932Z,3.64
2019-01-26T19:33:32.185Z,3.65
2019-01-26T19:36:00.477Z,3.64
2019-01-26T19:38:28.767Z,3.64
2019-01-26T19:40:57.021Z,3.63
2019-01-26T19:43:25.296Z,3.61
2019-01-26T19:45:53.553Z,3.62
2019-01-26T19:48:21.803Z,3.62
2019-01-26T19:50:50.106Z,3.63
2019-01-26T19:53:18.419Z,3.60
2019-01-26T19:55:46.692Z,3.59
2019-01-26T19:58:14.971Z,3.57
2019-01-26T20:00:43.227Z,3.54
2019-01-26T20:03:11.524Z,3.54
2019-01-26T20:05:39.806Z,3.47
2019-01-26T20:08:08.065Z,3.38
2019-01-26T20:10:36.366Z,3.28
2019-01-26T20:13:04.621Z,3.33
2019-01-26T20:15:32.889Z,3.38
2019-01-26T20:18:01.737Z,3.39
2019-01-26T20:20:39.289Z,3.41
2019-01-26T20:23:07.599Z,3.43
2019-01-26T20:25:35.951Z,3.43
2019-01-26T20:28:04.757Z,3.39
2019-01-26T20:30:33.691Z,3.41
2019-01-26T20:33:01.952Z,3.42
2019-01-26T20:35:31.391Z,3.40
2019-01-26T20:37:59.652Z,3.39
2019-01-26T20:40:27.908Z,3.39
2019-01-26T20:42:56.585Z,3.37
2019-01-26T20:45:27.902Z,3.37
2019-01-26T20:47:56.542Z,3.38
2019-01-26T20:50:24.853Z,3.37
2019-01-26T20:52:53.100Z,3.37
2019-01-26T20:55:21.435Z,3.35
2019-01-26T20:57:49.942Z,3.37
2019-01-26T21:00:27.655Z,3.41
2019-01-26T21:02:56.078Z,3.44
2019-01-26T21:05:24.962Z,3.47
2019-01-26T21:07:54.872Z,3.47
2019-01-26T21:10:30.045Z,3.50
2019-01-26T21:13:02.198Z,3.50
2019-01-26T21:15:30.597Z,3.53
2019-01-26T21:17:59.403Z,3.53
2019-01-26T21:20:28.068Z,3.53
2019-01-26T21:22:56.423Z,3.52
2019-01-26T21:25:24.767Z,3.47
2019-01-26T21:27:53.246Z,3.51
2019-01-26T21:30:24.579Z,3.55
2019-01-26T21:32:53.205Z,3.55
2019-01-26T21:35:21.792Z,3.56
2019-01-26T21:37:53.190Z,3.59
2019-01-26T21:40:23.525Z,3.59
2019-01-26T21:42:51.817Z,3.57
2019-01-26T21:45:20.882Z,3.55
2019-01-26T21:47:49.305Z,3.46
2019-01-26T21:50:27.466Z,3.38
2019-01-26T21:52:56.323Z,3.33
2019-01-26T21:55:24.643Z,3.29
2019-01-26T21:57:53.011Z,3.28
2019-01-26T22:00:23.748Z,3.25
2019-01-26T22:02:52.071Z,3.27
2019-01-26T22:05:23.670Z,3.27
2019-01-26T22:07:53.320Z,-1.41
2019-01-26T22:10:26.692Z,3.22
2019-01-26T22:12:58.264Z,3.20
2019-01-26T22:15:26.704Z,3.17
2019-01-26T22:17:59.400Z,3.15
2019-01-26T22:20:28.549Z,3.17
2019-01-26T22:22:57.468Z,3.14
2019-01-26T22:25:29.127Z,3.13
2019-01-26T22:27:57.491Z,3.11
2019-01-26T22:30:31.822Z,3.17
2019-01-26T22:33:01.722Z,3.17
2019-01-26T22:35:30.065Z,3.17
2019-01-26T22:37:58.483Z,3.18
2019-01-26T22:40:29.363Z,3.21
2019-01-26T22:43:04.530Z,3.21
2019-01-26T22:45:34.691Z,3.21
2019-01-26T22:48:03.019Z,3.25
2019-01-26T22:50:38.958Z,3.23
2019-01-26T22:53:16.332Z,3.21
2019-01-26T22:55:45.082Z,3.24
2019-01-26T22:58:13.697Z,3.23
2019-01-26T23:01:02.309Z,3.16
2019-01-26T23:03:47.356Z,3.14
2019-01-26T23:06:27.760Z,3.11
2019-01-26T23:09:00.999Z,3.10
2019-01-26T23:11:35.383Z,3.09
2019-01-26T23:14:15.872Z,3.08
2019-01-26T23:16:47.671Z,3.08
2019-01-26T23:19:41.174Z,3.08
2019-01-26T23:22:36.017Z,3.13
2019-01-26T23:25:22.947Z,3.13
2019-01-26T23:28:00.329Z,3.08
2019-01-26T23:30:53.354Z,3.06
2019-01-26T23:33:21.869Z,3.05
2019-01-26T23:35:52.026Z,3.08
2019-01-26T23:38:23.734Z,3.05
2019-01-26T23:40:56.899Z,3.07
2019-01-26T23:43:25.522Z,3.06
2019-01-26T23:45:53.952Z,3.05
2019-01-26T23:48:22.265Z,3.02
2019-01-26T23:50:55.208Z,2.99
2019-01-26T23:53:27.212Z,3.00
2019-01-26T23:56:01.628Z,2.99
